createdAt,value
2022-10-20T00:08:40.074Z,98.8
2022-10-20T00:28:40.093Z,98.3
2022-10-20T00:48:40.073Z,97.5
2022-10-20T01:08:40.025Z,97.4
2022-10-20T01:28:39.998Z,97.1
2022-10-20T01:48:39.967Z,96.9
2022-10-20T02:08:39.938Z,96.7
2022-10-20T02:28:39.974Z,96.6
2022-10-20T02:48:39.912Z,96.6
2022-10-20T03:08:39.884Z,96.1
2022-10-20T03:28:39.865Z,95.2
2022-10-20T03:48:39.857Z,96.2
2022-10-20T04:08:39.809Z,94.9
2022-10-20T04:28:39.794Z,94.1
2022-10-20T04:48:39.786Z,94.7
2022-10-20T05:08:39.752Z,95.3
2022-10-20T05:28:39.878Z,95.5
2022-10-20T05:48:39.836Z,95.0
2022-10-20T06:08:39.699Z,95.3
2022-10-20T06:28:39.824Z,96.5
2022-10-20T06:48:39.826Z,96.4
2022-10-20T07:08:39.634Z,96.4
2022-10-20T07:28:39.764Z,96.5
2022-10-20T07:48:39.753Z,96.0
2022-10-20T08:08:39.732Z,96.3
2022-10-20T08:28:39.707Z,95.9
2022-10-20T08:48:39.559Z,94.8
2022-10-20T09:08:39.511Z,95.1
2022-10-20T09:28:39.501Z,92.2
2022-10-20T09:48:39.502Z,91.5
2022-10-20T10:08:39.465Z,92.2
2022-10-20T10:28:39.427Z,90.4
2022-10-20T10:48:39.385Z,91.7
2022-10-20T11:08:39.408Z,89.6
2022-10-20T11:28:39.429Z,88.1
2022-10-20T11:48:39.343Z,88.5
2022-10-20T12:08:39.298Z,87.4
2022-10-20T12:28:39.272Z,88.3
2022-10-20T12:48:39.258Z,87.2
2022-10-20T13:08:39.226Z,85.4
2022-10-20T13:28:39.199Z,85.4
2022-10-20T13:48:39.164Z,86.9
2022-10-20T14:08:39.137Z,86.5
2022-10-20T14:28:39.130Z,86.8
2022-10-20T14:48:39.094Z,86.8
2022-10-20T15:08:39.066Z,88.8
2022-10-20T15:28:39.028Z,90.5
2022-10-20T15:48:39.022Z,90.1
2022-10-20T16:08:38.997Z,89.9
2022-10-20T16:28:38.977Z,90.6
2022-10-20T16:48:38.956Z,89.1
2022-10-20T17:08:38.913Z,88.6
2022-10-20T17:28:38.884Z,88.6
2022-10-20T17:48:38.874Z,89.7
2022-10-20T18:08:38.834Z,88.7
2022-10-20T18:28:38.815Z,91.0
2022-10-20T18:48:38.820Z,91.5
2022-10-20T19:08:38.761Z,92.8
2022-10-20T19:28:38.734Z,90.2
2022-10-20T19:48:38.732Z,92.7
2022-10-20T20:08:38.689Z,93.1
2022-10-20T20:28:38.683Z,92.3
2022-10-20T20:48:38.646Z,92.9
2022-10-20T21:08:38.615Z,93.4
2022-10-20T21:28:38.597Z,93.7
2022-10-20T21:48:38.583Z,93.6
2022-10-20T22:08:38.559Z,94.3
2022-10-20T22:28:38.534Z,94.9
2022-10-20T22:48:38.514Z,94.6
2022-10-20T23:08:38.472Z,92.7
2022-10-20T23:28:38.457Z,95.8
2022-10-20T23:48:38.489Z,94.2
